LAN3550 SCEL-SLLP
Flight info
| Callsign | LAN3550 |
|---|---|
| Flight time | 2h 6m |
| Altitude | 24000 |
| Route | DILOK5A DILOK Q814 PABOS/N0430F340 UT276 ENTOP/N0377F240 Q815 LOA/N0440F340 UL309 EMPEX/N0443F350 UL309 IROBO |
| Aircraft | A320/M-SDE3FGHIRWY/LB1 |
Departure
| Time | 2026-05-07 15:54 |
|---|---|
| Airport | Comodoro Arturo Merino Benítez International Airport (SCEL) |
Arrival
| Time | 2026-05-07 18:01 |
|---|---|
| Airport | El Alto International Airport (SLLP) |
| Time | Latitude | Longitude | Altitude | Speed | Heading |
|---|---|---|---|---|---|
| 2026-05-07 15:46 | -33.40383 | -70.79771 | 1565 ft | 0 kts | 358° |
| 2026-05-07 15:48 | -33.40407 | -70.79770 | 1565 ft | 4 kts | 355° |
| 2026-05-07 15:48 | -33.40434 | -70.79766 | 1565 ft | 4 kts | 351° |
| 2026-05-07 15:49 | -33.40460 | -70.79759 | 1565 ft | 4 kts | 338° |
| 2026-05-07 15:49 | -33.40480 | -70.79744 | 1564 ft | 4 kts | 290° |
| 2026-05-07 15:49 | -33.40483 | -70.79735 | 1564 ft | 0 kts | 268° |
| 2026-05-07 15:51 | -33.40483 | -70.79750 | 1564 ft | 6 kts | 268° |
| 2026-05-07 15:51 | -33.40486 | -70.79839 | 1565 ft | 15 kts | 267° |
| 2026-05-07 15:51 | -33.40507 | -70.79964 | 1566 ft | 14 kts | 226° |
| 2026-05-07 15:52 | -33.40586 | -70.79992 | 1567 ft | 11 kts | 240° |
| 2026-05-07 15:52 | -33.40593 | -70.80062 | 1569 ft | 6 kts | 270° |
| 2026-05-07 15:52 | -33.40593 | -70.80098 | 1571 ft | 6 kts | 270° |
| 2026-05-07 15:52 | -33.40589 | -70.80174 | 1574 ft | 13 kts | 296° |
| 2026-05-07 15:53 | -33.40534 | -70.80195 | 1574 ft | 0 kts | 357° |
| 2026-05-07 15:53 | -33.40402 | -70.80202 | 1574 ft | 53 kts | 358° |
| 2026-05-07 15:54 | -33.39807 | -70.80233 | 1572 ft | 116 kts | 357° |
| 2026-05-07 15:54 | -33.38822 | -70.80287 | 1576 ft | 166 kts | 357° |
| 2026-05-07 15:54 | -33.37642 | -70.80352 | 2082 ft | 170 kts | 358° |
| 2026-05-07 15:54 | -33.36412 | -70.80416 | 2448 ft | 187 kts | 358° |
| 2026-05-07 15:55 | -33.35039 | -70.80487 | 2680 ft | 209 kts | 357° |
| 2026-05-07 15:55 | -33.33497 | -70.80569 | 2917 ft | 234 kts | 357° |
| 2026-05-07 15:55 | -33.31812 | -70.80659 | 3276 ft | 256 kts | 357° |
| 2026-05-07 15:55 | -33.30000 | -70.80806 | 4004 ft | 263 kts | 355° |
| 2026-05-07 15:56 | -33.28174 | -70.81093 | 4865 ft | 266 kts | 342° |
| 2026-05-07 15:56 | -33.26488 | -70.82020 | 5716 ft | 268 kts | 331° |
| 2026-05-07 15:56 | -33.24848 | -70.83103 | 6557 ft | 271 kts | 335° |
| 2026-05-07 15:56 | -33.23024 | -70.83642 | 7301 ft | 274 kts | 360° |
| 2026-05-07 15:57 | -33.21109 | -70.83422 | 8012 ft | 279 kts | 8° |
| 2026-05-07 15:57 | -33.19161 | -70.83105 | 8711 ft | 285 kts | 8° |
| 2026-05-07 15:57 | -33.17174 | -70.82777 | 9442 ft | 291 kts | 8° |
| 2026-05-07 15:57 | -33.15156 | -70.82448 | 10185 ft | 296 kts | 8° |
| 2026-05-07 15:58 | -33.13036 | -70.82102 | 10413 ft | 319 kts | 8° |
| 2026-05-07 15:58 | -33.10759 | -70.81732 | 10578 ft | 342 kts | 8° |
| 2026-05-07 15:58 | -33.09164 | -70.81475 | 10663 ft | 357 kts | 8° |
| 2026-05-07 15:58 | -33.05733 | -70.80930 | 10831 ft | 385 kts | 8° |
| 2026-05-07 15:59 | -33.03942 | -70.80648 | 10913 ft | 398 kts | 8° |
| 2026-05-07 15:59 | -33.01163 | -70.80213 | 11297 ft | 407 kts | 7° |
| 2026-05-07 15:59 | -32.98337 | -70.79772 | 11825 ft | 413 kts | 7° |
| 2026-05-07 15:59 | -32.95469 | -70.79318 | 12333 ft | 418 kts | 8° |
| 2026-05-07 16:00 | -32.92568 | -70.78856 | 12864 ft | 423 kts | 8° |
| 2026-05-07 16:00 | -32.89635 | -70.78389 | 13386 ft | 428 kts | 7° |
| 2026-05-07 16:00 | -32.86656 | -70.77916 | 13913 ft | 434 kts | 7° |
| 2026-05-07 16:00 | -32.83648 | -70.77438 | 14368 ft | 440 kts | 7° |
| 2026-05-07 16:01 | -32.80590 | -70.76958 | 14756 ft | 446 kts | 7° |
| 2026-05-07 16:01 | -32.77490 | -70.76472 | 15130 ft | 453 kts | 7° |
| 2026-05-07 16:01 | -32.74347 | -70.75980 | 15476 ft | 458 kts | 7° |
| 2026-05-07 16:01 | -32.71161 | -70.75481 | 15822 ft | 465 kts | 7° |
| 2026-05-07 16:02 | -32.67927 | -70.74977 | 16145 ft | 472 kts | 7° |
| 2026-05-07 16:02 | -32.64650 | -70.74465 | 16493 ft | 479 kts | 7° |
| 2026-05-07 16:02 | -32.61323 | -70.73943 | 16846 ft | 485 kts | 7° |
| 2026-05-07 16:02 | -32.57964 | -70.73412 | 17177 ft | 491 kts | 7° |
| 2026-05-07 16:03 | -32.54553 | -70.72874 | 17525 ft | 497 kts | 7° |
| 2026-05-07 16:03 | -32.51105 | -70.72330 | 17856 ft | 503 kts | 7° |
| 2026-05-07 16:03 | -32.47616 | -70.71779 | 18188 ft | 508 kts | 7° |
| 2026-05-07 16:03 | -32.44088 | -70.71223 | 18515 ft | 514 kts | 7° |
| 2026-05-07 16:04 | -32.40528 | -70.70662 | 18802 ft | 518 kts | 7° |
| 2026-05-07 16:04 | -32.36940 | -70.70099 | 19124 ft | 521 kts | 6° |
| 2026-05-07 16:04 | -32.33335 | -70.69536 | 19473 ft | 524 kts | 6° |
| 2026-05-07 16:04 | -32.29717 | -70.68972 | 19790 ft | 526 kts | 6° |
| 2026-05-07 16:05 | -32.26072 | -70.68406 | 20107 ft | 530 kts | 6° |
| 2026-05-07 16:05 | -32.22415 | -70.67839 | 20372 ft | 532 kts | 6° |
| 2026-05-07 16:05 | -32.18728 | -70.67270 | 20691 ft | 535 kts | 6° |
| 2026-05-07 16:05 | -32.15027 | -70.66702 | 20936 ft | 538 kts | 5° |
| 2026-05-07 16:06 | -32.11310 | -70.66132 | 21193 ft | 540 kts | 6° |
| 2026-05-07 16:06 | -32.07579 | -70.65556 | 21475 ft | 542 kts | 5° |
| 2026-05-07 16:06 | -32.03827 | -70.64975 | 21709 ft | 544 kts | 5° |
| 2026-05-07 16:06 | -32.00073 | -70.64391 | 21903 ft | 546 kts | 5° |
| 2026-05-07 16:07 | -31.96306 | -70.63802 | 22073 ft | 546 kts | 5° |
| 2026-05-07 16:07 | -31.92531 | -70.63308 | 22218 ft | 545 kts | 0° |
| 2026-05-07 16:07 | -31.88739 | -70.63135 | 22356 ft | 546 kts | 359° |
| 2026-05-07 16:07 | -31.84936 | -70.62972 | 22630 ft | 547 kts | 359° |
| 2026-05-07 16:08 | -31.81117 | -70.62805 | 22901 ft | 549 kts | 359° |
| 2026-05-07 16:08 | -31.77305 | -70.62638 | 23151 ft | 550 kts | 359° |
| 2026-05-07 16:08 | -31.73465 | -70.62472 | 23379 ft | 552 kts | 359° |
| 2026-05-07 16:08 | -31.69670 | -70.62310 | 23603 ft | 554 kts | 358° |
| 2026-05-07 16:09 | -31.65816 | -70.62146 | 23816 ft | 555 kts | 358° |
| 2026-05-07 16:09 | -31.61905 | -70.61979 | 23969 ft | 556 kts | 358° |
| 2026-05-07 16:09 | -31.58042 | -70.61809 | 24231 ft | 555 kts | 358° |
| 2026-05-07 16:09 | -31.54181 | -70.61640 | 24444 ft | 555 kts | 358° |
| 2026-05-07 16:10 | -31.50318 | -70.61472 | 24641 ft | 556 kts | 358° |
| 2026-05-07 16:10 | -31.46510 | -70.61305 | 24796 ft | 555 kts | 358° |
| 2026-05-07 16:10 | -31.42644 | -70.61142 | 25030 ft | 556 kts | 358° |
| 2026-05-07 16:10 | -31.38778 | -70.60981 | 25269 ft | 555 kts | 358° |
| 2026-05-07 16:11 | -31.34916 | -70.60790 | 25462 ft | 556 kts | 1° |
| 2026-05-07 16:11 | -31.31066 | -70.60185 | 25745 ft | 559 kts | 9° |
| 2026-05-07 16:11 | -31.27253 | -70.59284 | 25981 ft | 560 kts | 9° |
| 2026-05-07 16:11 | -31.23431 | -70.58379 | 26193 ft | 560 kts | 9° |
| 2026-05-07 16:12 | -31.19608 | -70.57476 | 26363 ft | 561 kts | 9° |
| 2026-05-07 16:12 | -31.15784 | -70.56578 | 26625 ft | 561 kts | 9° |
| 2026-05-07 16:12 | -31.11961 | -70.55684 | 26898 ft | 561 kts | 9° |
| 2026-05-07 16:12 | -31.08088 | -70.54777 | 27169 ft | 560 kts | 10° |
| 2026-05-07 16:13 | -31.04268 | -70.53884 | 27506 ft | 559 kts | 9° |
| 2026-05-07 16:13 | -31.00448 | -70.52992 | 27736 ft | 561 kts | 9° |
| 2026-05-07 16:13 | -30.96617 | -70.52098 | 27911 ft | 561 kts | 9° |
| 2026-05-07 16:13 | -30.92785 | -70.51206 | 28117 ft | 562 kts | 9° |
| 2026-05-07 16:14 | -30.89001 | -70.50326 | 28436 ft | 562 kts | 9° |
| 2026-05-07 16:14 | -30.85114 | -70.49420 | 28699 ft | 562 kts | 9° |
| 2026-05-07 16:14 | -30.81281 | -70.48527 | 28970 ft | 562 kts | 10° |
| 2026-05-07 16:14 | -30.77447 | -70.47635 | 29294 ft | 561 kts | 10° |
| 2026-05-07 16:15 | -30.73671 | -70.46757 | 29572 ft | 560 kts | 10° |
| 2026-05-07 16:15 | -30.69850 | -70.45868 | 29879 ft | 561 kts | 10° |
| 2026-05-07 16:15 | -30.66021 | -70.44977 | 30174 ft | 561 kts | 10° |
| 2026-05-07 16:15 | -30.62185 | -70.44087 | 30408 ft | 562 kts | 10° |
| 2026-05-07 16:16 | -30.58353 | -70.43197 | 30656 ft | 562 kts | 10° |
| 2026-05-07 16:16 | -30.54511 | -70.42304 | 30913 ft | 563 kts | 11° |
| 2026-05-07 16:16 | -30.50673 | -70.41413 | 31175 ft | 563 kts | 11° |
| 2026-05-07 16:16 | -30.46832 | -70.40525 | 31493 ft | 562 kts | 11° |
| 2026-05-07 16:17 | -30.42992 | -70.39639 | 31770 ft | 562 kts | 11° |
| 2026-05-07 16:17 | -30.39160 | -70.38758 | 31980 ft | 561 kts | 11° |
| 2026-05-07 16:17 | -30.35331 | -70.37874 | 32235 ft | 561 kts | 11° |
| 2026-05-07 16:17 | -30.31497 | -70.36990 | 32510 ft | 561 kts | 11° |
| 2026-05-07 16:18 | -30.27670 | -70.36113 | 32684 ft | 561 kts | 11° |
| 2026-05-07 16:18 | -30.23846 | -70.35238 | 32926 ft | 559 kts | 11° |
| 2026-05-07 16:18 | -30.20036 | -70.34362 | 33159 ft | 558 kts | 11° |
| 2026-05-07 16:18 | -30.16226 | -70.33484 | 33419 ft | 558 kts | 11° |
| 2026-05-07 16:19 | -30.12416 | -70.32611 | 33732 ft | 558 kts | 11° |
| 2026-05-07 16:19 | -30.08611 | -70.31742 | 34010 ft | 557 kts | 11° |
| 2026-05-07 16:19 | -30.04808 | -70.30875 | 34171 ft | 558 kts | 11° |
| 2026-05-07 16:20 | -29.97141 | -70.29119 | 34191 ft | 564 kts | 10° |
| 2026-05-07 16:20 | -29.89445 | -70.27352 | 34192 ft | 563 kts | 11° |
| 2026-05-07 16:21 | -29.81760 | -70.25602 | 34189 ft | 563 kts | 11° |
| 2026-05-07 16:21 | -29.74072 | -70.23858 | 34185 ft | 563 kts | 11° |
| 2026-05-07 16:22 | -29.66395 | -70.22114 | 34185 ft | 562 kts | 11° |
| 2026-05-07 16:22 | -29.58772 | -70.20375 | 34183 ft | 562 kts | 11° |
| 2026-05-07 16:23 | -29.51059 | -70.18624 | 34175 ft | 567 kts | 11° |
| 2026-05-07 16:23 | -29.43312 | -70.16874 | 34117 ft | 568 kts | 11° |
| 2026-05-07 16:24 | -29.35574 | -70.15129 | 34200 ft | 567 kts | 11° |
| 2026-05-07 16:24 | -29.27836 | -70.13381 | 34205 ft | 566 kts | 10° |
| 2026-05-07 16:25 | -29.20117 | -70.11652 | 34212 ft | 565 kts | 11° |
| 2026-05-07 16:25 | -29.12402 | -70.09921 | 34190 ft | 564 kts | 10° |
| 2026-05-07 16:26 | -29.04709 | -70.08195 | 34153 ft | 561 kts | 11° |
| 2026-05-07 16:26 | -28.97029 | -70.06458 | 34171 ft | 563 kts | 11° |
| 2026-05-07 16:27 | -28.89338 | -70.04733 | 34169 ft | 563 kts | 10° |
| 2026-05-07 16:27 | -28.81642 | -70.03026 | 34177 ft | 563 kts | 10° |
| 2026-05-07 16:28 | -28.73955 | -70.01316 | 34186 ft | 563 kts | 11° |
| 2026-05-07 16:28 | -28.66273 | -69.99597 | 34188 ft | 562 kts | 11° |
| 2026-05-07 16:29 | -28.58599 | -69.97884 | 34162 ft | 562 kts | 11° |
| 2026-05-07 16:29 | -28.50934 | -69.96172 | 34169 ft | 561 kts | 11° |
| 2026-05-07 16:30 | -28.43259 | -69.94569 | 34173 ft | 561 kts | 9° |
| 2026-05-07 16:30 | -28.35564 | -69.93159 | 34164 ft | 559 kts | 8° |
| 2026-05-07 16:31 | -28.27869 | -69.91794 | 34169 ft | 560 kts | 8° |
| 2026-05-07 16:31 | -28.20188 | -69.90357 | 34171 ft | 559 kts | 9° |
| 2026-05-07 16:32 | -28.12528 | -69.88882 | 34155 ft | 559 kts | 9° |
| 2026-05-07 16:32 | -28.04853 | -69.87424 | 34138 ft | 559 kts | 8° |
| 2026-05-07 16:33 | -27.97178 | -69.85987 | 34161 ft | 559 kts | 8° |
| 2026-05-07 16:33 | -27.89520 | -69.84557 | 34140 ft | 557 kts | 8° |
| 2026-05-07 16:34 | -27.81882 | -69.83127 | 34131 ft | 556 kts | 8° |
| 2026-05-07 16:34 | -27.74251 | -69.81696 | 34125 ft | 555 kts | 8° |
| 2026-05-07 16:35 | -27.66637 | -69.80266 | 34096 ft | 554 kts | 8° |
| 2026-05-07 16:35 | -27.59031 | -69.78843 | 34136 ft | 554 kts | 8° |
| 2026-05-07 16:36 | -27.51436 | -69.77427 | 34135 ft | 553 kts | 8° |
| 2026-05-07 16:36 | -27.43844 | -69.76013 | 34128 ft | 553 kts | 7° |
| 2026-05-07 16:37 | -27.36297 | -69.74613 | 34114 ft | 552 kts | 7° |
| 2026-05-07 16:37 | -27.28666 | -69.73201 | 34119 ft | 552 kts | 7° |
| 2026-05-07 16:38 | -27.21133 | -69.71807 | 34106 ft | 552 kts | 7° |
| 2026-05-07 16:38 | -27.13548 | -69.70398 | 34064 ft | 552 kts | 7° |
| 2026-05-07 16:39 | -27.05966 | -69.68987 | 34093 ft | 552 kts | 7° |
| 2026-05-07 16:39 | -26.98394 | -69.67582 | 34105 ft | 552 kts | 7° |
| 2026-05-07 16:40 | -26.90823 | -69.66179 | 34142 ft | 551 kts | 7° |
| 2026-05-07 16:40 | -26.83269 | -69.64789 | 34136 ft | 550 kts | 6° |
| 2026-05-07 16:41 | -26.75714 | -69.63404 | 34137 ft | 550 kts | 7° |
| 2026-05-07 16:41 | -26.68157 | -69.62008 | 34128 ft | 550 kts | 7° |
| 2026-05-07 16:42 | -26.60604 | -69.60614 | 34125 ft | 550 kts | 7° |
| 2026-05-07 16:42 | -26.53048 | -69.59229 | 34111 ft | 550 kts | 6° |
| 2026-05-07 16:43 | -26.46781 | -69.58078 | 34127 ft | 549 kts | 6° |
| 2026-05-07 16:43 | -26.38019 | -69.56475 | 34137 ft | 549 kts | 6° |
| 2026-05-07 16:44 | -26.31705 | -69.55324 | 34124 ft | 548 kts | 6° |
| 2026-05-07 16:44 | -26.24178 | -69.53950 | 34089 ft | 547 kts | 6° |
| 2026-05-07 16:45 | -26.16673 | -69.52573 | 34163 ft | 546 kts | 6° |
| 2026-05-07 16:45 | -26.09179 | -69.51207 | 34155 ft | 546 kts | 6° |
| 2026-05-07 16:46 | -26.01687 | -69.49847 | 34126 ft | 546 kts | 6° |
| 2026-05-07 16:46 | -25.94193 | -69.48490 | 34105 ft | 546 kts | 6° |
| 2026-05-07 16:47 | -25.86705 | -69.47135 | 34124 ft | 545 kts | 6° |
| 2026-05-07 16:47 | -25.79223 | -69.45777 | 34120 ft | 544 kts | 6° |
| 2026-05-07 16:48 | -25.71749 | -69.44419 | 34114 ft | 544 kts | 6° |
| 2026-05-07 16:48 | -25.64277 | -69.43073 | 34090 ft | 543 kts | 6° |
| 2026-05-07 16:49 | -25.56836 | -69.41731 | 34113 ft | 541 kts | 6° |
| 2026-05-07 16:49 | -25.49416 | -69.40389 | 34119 ft | 540 kts | 6° |
| 2026-05-07 16:50 | -25.42000 | -69.39056 | 34155 ft | 539 kts | 5° |
| 2026-05-07 16:50 | -25.34596 | -69.37728 | 34122 ft | 539 kts | 6° |
| 2026-05-07 16:51 | -25.27205 | -69.36394 | 34166 ft | 537 kts | 6° |
| 2026-05-07 16:51 | -25.19886 | -69.35077 | 34168 ft | 536 kts | 6° |
| 2026-05-07 16:52 | -25.12479 | -69.33751 | 34163 ft | 535 kts | 6° |
| 2026-05-07 16:52 | -25.05130 | -69.32436 | 34136 ft | 534 kts | 5° |
| 2026-05-07 16:53 | -24.97854 | -69.31136 | 34166 ft | 532 kts | 5° |
| 2026-05-07 16:53 | -24.90558 | -69.29838 | 34166 ft | 530 kts | 5° |
| 2026-05-07 16:54 | -24.83283 | -69.28540 | 34154 ft | 529 kts | 5° |
| 2026-05-07 16:54 | -24.76019 | -69.27241 | 34106 ft | 528 kts | 5° |
| 2026-05-07 16:55 | -24.68787 | -69.25948 | 34151 ft | 525 kts | 5° |
| 2026-05-07 16:55 | -24.61582 | -69.24668 | 34145 ft | 523 kts | 5° |
| 2026-05-07 16:56 | -24.54401 | -69.23400 | 34141 ft | 523 kts | 5° |
| 2026-05-07 16:56 | -24.43648 | -69.21495 | 34113 ft | 518 kts | 5° |
| 2026-05-07 16:57 | -24.36611 | -69.20243 | 34101 ft | 509 kts | 5° |
| 2026-05-07 16:57 | -24.29636 | -69.19007 | 34103 ft | 507 kts | 5° |
| 2026-05-07 16:58 | -24.22687 | -69.17784 | 34093 ft | 505 kts | 5° |
| 2026-05-07 16:58 | -24.15751 | -69.16568 | 34052 ft | 505 kts | 5° |
| 2026-05-07 16:59 | -24.08816 | -69.15354 | 34059 ft | 505 kts | 5° |
| 2026-05-07 16:59 | -24.01874 | -69.14134 | 34058 ft | 505 kts | 5° |
| 2026-05-07 17:00 | -23.94928 | -69.12909 | 34060 ft | 506 kts | 5° |
| 2026-05-07 17:00 | -23.87979 | -69.11688 | 34073 ft | 506 kts | 5° |
| 2026-05-07 17:01 | -23.81028 | -69.10469 | 34068 ft | 505 kts | 5° |
| 2026-05-07 17:01 | -23.74087 | -69.09255 | 34058 ft | 505 kts | 5° |
| 2026-05-07 17:02 | -23.67144 | -69.08036 | 34058 ft | 505 kts | 5° |
| 2026-05-07 17:02 | -23.60208 | -69.06813 | 34056 ft | 505 kts | 5° |
| 2026-05-07 17:03 | -23.53274 | -69.05600 | 34047 ft | 504 kts | 5° |
| 2026-05-07 17:03 | -23.46400 | -69.04401 | 34079 ft | 502 kts | 5° |
| 2026-05-07 17:04 | -23.39514 | -69.03207 | 34088 ft | 501 kts | 5° |
| 2026-05-07 17:04 | -23.32641 | -69.02013 | 34088 ft | 500 kts | 5° |
| 2026-05-07 17:05 | -23.25777 | -69.00816 | 34086 ft | 500 kts | 5° |
| 2026-05-07 17:05 | -23.18921 | -68.99599 | 34084 ft | 498 kts | 4° |
| 2026-05-07 17:06 | -23.12082 | -68.98384 | 34096 ft | 497 kts | 4° |
| 2026-05-07 17:06 | -23.05256 | -68.97182 | 34101 ft | 497 kts | 4° |
| 2026-05-07 17:07 | -22.98433 | -68.95994 | 34099 ft | 496 kts | 4° |
| 2026-05-07 17:07 | -22.91622 | -68.94803 | 34076 ft | 496 kts | 1° |
| 2026-05-07 17:08 | -22.84820 | -68.93603 | 34084 ft | 494 kts | 1° |
| 2026-05-07 17:08 | -22.78036 | -68.92417 | 34086 ft | 494 kts | 1° |
| 2026-05-07 17:09 | -22.71258 | -68.91237 | 34086 ft | 493 kts | 1° |
| 2026-05-07 17:09 | -22.64476 | -68.90050 | 34076 ft | 493 kts | 1° |
| 2026-05-07 17:10 | -22.57708 | -68.88865 | 34067 ft | 492 kts | 360° |
| 2026-05-07 17:10 | -22.50964 | -68.87688 | 34077 ft | 490 kts | 360° |
| 2026-05-07 17:11 | -22.44250 | -68.86735 | 34074 ft | 484 kts | 356° |
| 2026-05-07 17:11 | -22.37560 | -68.86110 | 34078 ft | 482 kts | 355° |
| 2026-05-07 17:12 | -22.30882 | -68.85511 | 34080 ft | 482 kts | 355° |
| 2026-05-07 17:12 | -22.24206 | -68.84824 | 34081 ft | 482 kts | 355° |
| 2026-05-07 17:13 | -22.17537 | -68.84084 | 34102 ft | 481 kts | 355° |
| 2026-05-07 17:13 | -22.10882 | -68.83355 | 34101 ft | 480 kts | 355° |
| 2026-05-07 17:14 | -22.04231 | -68.82656 | 34110 ft | 480 kts | 355° |
| 2026-05-07 17:14 | -21.97585 | -68.81963 | 34085 ft | 479 kts | 355° |
| 2026-05-07 17:15 | -21.90962 | -68.81261 | 34125 ft | 478 kts | 355° |
| 2026-05-07 17:15 | -21.84347 | -68.80565 | 34128 ft | 477 kts | 355° |
| 2026-05-07 17:16 | -21.77785 | -68.79872 | 34141 ft | 477 kts | 355° |
| 2026-05-07 17:16 | -21.71185 | -68.79177 | 34146 ft | 476 kts | 355° |
| 2026-05-07 17:17 | -21.64595 | -68.78479 | 34139 ft | 475 kts | 356° |
| 2026-05-07 17:17 | -21.58030 | -68.77774 | 34152 ft | 474 kts | 356° |
| 2026-05-07 17:18 | -21.51470 | -68.77081 | 34166 ft | 473 kts | 356° |
| 2026-05-07 17:18 | -21.44920 | -68.76398 | 34165 ft | 473 kts | 356° |
| 2026-05-07 17:19 | -21.38367 | -68.75714 | 34173 ft | 473 kts | 356° |
| 2026-05-07 17:19 | -21.31825 | -68.75029 | 34146 ft | 473 kts | 356° |
| 2026-05-07 17:20 | -21.25277 | -68.74343 | 34165 ft | 473 kts | 356° |
| 2026-05-07 17:20 | -21.18730 | -68.73654 | 34175 ft | 473 kts | 356° |
| 2026-05-07 17:21 | -21.12184 | -68.72959 | 34175 ft | 473 kts | 356° |
| 2026-05-07 17:21 | -21.05626 | -68.72253 | 34135 ft | 473 kts | 357° |
| 2026-05-07 17:22 | -20.99074 | -68.71547 | 34158 ft | 473 kts | 357° |
| 2026-05-07 17:22 | -20.92526 | -68.70847 | 34161 ft | 472 kts | 357° |
| 2026-05-07 17:23 | -20.85986 | -68.70161 | 34161 ft | 472 kts | 357° |
| 2026-05-07 17:23 | -20.79443 | -68.69475 | 34157 ft | 472 kts | 357° |
| 2026-05-07 17:24 | -20.72906 | -68.68785 | 34158 ft | 472 kts | 357° |
| 2026-05-07 17:24 | -20.66372 | -68.68088 | 34153 ft | 472 kts | 357° |
| 2026-05-07 17:25 | -20.59832 | -68.67394 | 34153 ft | 472 kts | 357° |
| 2026-05-07 17:25 | -20.53294 | -68.66715 | 34154 ft | 472 kts | 357° |
| 2026-05-07 17:26 | -20.46756 | -68.66025 | 34150 ft | 472 kts | 358° |
| 2026-05-07 17:26 | -20.40216 | -68.65300 | 34122 ft | 472 kts | 358° |
| 2026-05-07 17:27 | -20.33678 | -68.64581 | 34128 ft | 472 kts | 358° |
| 2026-05-07 17:27 | -20.27142 | -68.63868 | 34130 ft | 472 kts | 358° |
| 2026-05-07 17:28 | -20.20644 | -68.63152 | 34134 ft | 473 kts | 358° |
| 2026-05-07 17:28 | -20.14100 | -68.62434 | 34136 ft | 472 kts | 358° |
| 2026-05-07 17:29 | -20.07563 | -68.61727 | 34128 ft | 472 kts | 359° |
| 2026-05-07 17:29 | -20.01034 | -68.61016 | 34138 ft | 472 kts | 359° |
| 2026-05-07 17:30 | -19.94506 | -68.60306 | 34143 ft | 471 kts | 359° |
| 2026-05-07 17:30 | -19.87981 | -68.59592 | 34143 ft | 471 kts | 359° |
| 2026-05-07 17:31 | -19.82568 | -68.59008 | 34104 ft | 470 kts | 359° |
| 2026-05-07 17:31 | -19.76060 | -68.58297 | 34073 ft | 471 kts | 359° |
| 2026-05-07 17:32 | -19.69537 | -68.57591 | 34076 ft | 471 kts | 359° |
| 2026-05-07 17:32 | -19.63014 | -68.56885 | 34054 ft | 471 kts | 359° |
| 2026-05-07 17:33 | -19.56483 | -68.56179 | 34061 ft | 472 kts | 359° |
| 2026-05-07 17:33 | -19.49955 | -68.55471 | 34051 ft | 471 kts | 359° |
| 2026-05-07 17:34 | -19.43428 | -68.54761 | 34035 ft | 471 kts | 359° |
| 2026-05-07 17:34 | -19.36901 | -68.54051 | 34046 ft | 471 kts | 359° |
| 2026-05-07 17:35 | -19.30380 | -68.53350 | 34053 ft | 471 kts | 359° |
| 2026-05-07 17:35 | -19.23856 | -68.52648 | 34050 ft | 471 kts | 359° |
| 2026-05-07 17:36 | -19.17337 | -68.51940 | 34055 ft | 471 kts | 360° |
| 2026-05-07 17:36 | -19.10820 | -68.51233 | 34032 ft | 470 kts | 360° |
| 2026-05-07 17:37 | -19.04300 | -68.50531 | 34035 ft | 471 kts | 360° |
| 2026-05-07 17:37 | -18.97773 | -68.49838 | 34032 ft | 471 kts | 360° |
| 2026-05-07 17:38 | -18.91246 | -68.49142 | 34033 ft | 472 kts | 360° |
| 2026-05-07 17:38 | -18.84713 | -68.48439 | 34023 ft | 472 kts | 360° |
| 2026-05-07 17:39 | -18.78176 | -68.47738 | 34007 ft | 473 kts | 360° |
| 2026-05-07 17:39 | -18.71613 | -68.47031 | 33994 ft | 474 kts | 360° |
| 2026-05-07 17:40 | -18.65041 | -68.46326 | 33996 ft | 475 kts | 360° |
| 2026-05-07 17:40 | -18.58462 | -68.45622 | 33988 ft | 475 kts | 360° |
| 2026-05-07 17:41 | -18.51878 | -68.44915 | 33981 ft | 476 kts | 360° |
| 2026-05-07 17:41 | -18.45283 | -68.44209 | 33966 ft | 477 kts | 0° |
| 2026-05-07 17:42 | -18.38673 | -68.43507 | 33983 ft | 478 kts | 0° |
| 2026-05-07 17:42 | -18.32094 | -68.42805 | 33985 ft | 479 kts | 0° |
| 2026-05-07 17:43 | -18.25421 | -68.42094 | 33980 ft | 479 kts | 0° |
| 2026-05-07 17:43 | -18.18790 | -68.41396 | 33982 ft | 479 kts | 0° |
| 2026-05-07 17:44 | -18.12157 | -68.40696 | 33995 ft | 479 kts | 0° |
| 2026-05-07 17:44 | -18.05527 | -68.39983 | 34005 ft | 479 kts | 0° |
| 2026-05-07 17:45 | -17.98896 | -68.39271 | 33998 ft | 479 kts | 0° |
| 2026-05-07 17:45 | -17.92274 | -68.38560 | 33999 ft | 479 kts | 0° |
| 2026-05-07 17:46 | -17.85687 | -68.37847 | 33986 ft | 479 kts | 1° |
| 2026-05-07 17:46 | -17.79060 | -68.37137 | 33987 ft | 479 kts | 1° |
| 2026-05-07 17:47 | -17.72431 | -68.36421 | 33984 ft | 479 kts | 1° |
| 2026-05-07 17:47 | -17.65809 | -68.35703 | 33987 ft | 479 kts | 1° |
| 2026-05-07 17:48 | -17.59169 | -68.34987 | 33996 ft | 479 kts | 1° |
| 2026-05-07 17:48 | -17.52540 | -68.34277 | 33993 ft | 479 kts | 1° |
| 2026-05-07 17:49 | -17.45906 | -68.33568 | 34002 ft | 479 kts | 1° |
| 2026-05-07 17:49 | -17.39308 | -68.33466 | 34001 ft | 471 kts | 351° |
| 2026-05-07 17:50 | -17.32763 | -68.33949 | 34000 ft | 472 kts | 351° |
| 2026-05-07 17:50 | -17.26236 | -68.34422 | 33329 ft | 469 kts | 351° |
| 2026-05-07 17:51 | -17.22995 | -68.34653 | 32024 ft | 466 kts | 351° |
| 2026-05-07 17:51 | -17.19759 | -68.34885 | 30503 ft | 467 kts | 352° |
| 2026-05-07 17:51 | -17.16512 | -68.35118 | 28742 ft | 469 kts | 352° |
| 2026-05-07 17:51 | -17.13237 | -68.35356 | 26796 ft | 473 kts | 353° |
| 2026-05-07 17:52 | -17.09933 | -68.35595 | 24980 ft | 477 kts | 353° |
| 2026-05-07 17:52 | -17.06597 | -68.35837 | 23194 ft | 485 kts | 353° |
| 2026-05-07 17:52 | -17.03197 | -68.36082 | 21979 ft | 489 kts | 354° |
| 2026-05-07 17:52 | -16.99816 | -68.36325 | 21456 ft | 484 kts | 354° |
| 2026-05-07 17:53 | -16.96471 | -68.36564 | 21208 ft | 481 kts | 354° |
| 2026-05-07 17:53 | -16.93144 | -68.36803 | 21003 ft | 479 kts | 354° |
| 2026-05-07 17:53 | -16.89876 | -68.37037 | 21006 ft | 470 kts | 354° |
| 2026-05-07 17:53 | -16.86691 | -68.37258 | 21010 ft | 448 kts | 354° |
| 2026-05-07 17:54 | -16.83684 | -68.37461 | 21007 ft | 417 kts | 354° |
| 2026-05-07 17:54 | -16.80893 | -68.37646 | 21042 ft | 387 kts | 354° |
| 2026-05-07 17:54 | -16.78291 | -68.37822 | 20986 ft | 366 kts | 354° |
| 2026-05-07 17:54 | -16.75754 | -68.37998 | 20481 ft | 357 kts | 354° |
| 2026-05-07 17:55 | -16.73328 | -68.38169 | 19917 ft | 352 kts | 354° |
| 2026-05-07 17:55 | -16.70894 | -68.38341 | 19340 ft | 348 kts | 355° |
| 2026-05-07 17:55 | -16.68491 | -68.38510 | 18776 ft | 344 kts | 355° |
| 2026-05-07 17:55 | -16.66111 | -68.38673 | 18158 ft | 341 kts | 355° |
| 2026-05-07 17:56 | -16.63755 | -68.38798 | 17523 ft | 337 kts | 359° |
| 2026-05-07 17:56 | -16.61450 | -68.38764 | 17283 ft | 322 kts | 0° |
| 2026-05-07 17:56 | -16.59277 | -68.38691 | 17179 ft | 303 kts | 1° |
| 2026-05-07 17:56 | -16.57232 | -68.38606 | 17068 ft | 285 kts | 1° |
| 2026-05-07 17:57 | -16.55293 | -68.38524 | 16734 ft | 276 kts | 0° |
| 2026-05-07 17:57 | -16.54013 | -68.38454 | 16599 ft | 265 kts | 5° |
| 2026-05-07 17:57 | -16.51936 | -68.37516 | 16313 ft | 237 kts | 41° |
| 2026-05-07 17:57 | -16.51014 | -68.36107 | 15593 ft | 238 kts | 73° |
| 2026-05-07 17:58 | -16.50846 | -68.34419 | 15206 ft | 236 kts | 94° |
| 2026-05-07 17:58 | -16.50905 | -68.32704 | 14968 ft | 231 kts | 93° |
| 2026-05-07 17:58 | -16.50952 | -68.31105 | 14798 ft | 211 kts | 93° |
| 2026-05-07 17:58 | -16.50999 | -68.29632 | 14628 ft | 198 kts | 94° |
| 2026-05-07 17:59 | -16.51045 | -68.28225 | 14444 ft | 192 kts | 93° |
| 2026-05-07 17:59 | -16.51095 | -68.26847 | 14215 ft | 189 kts | 92° |
| 2026-05-07 17:59 | -16.51143 | -68.25487 | 13965 ft | 187 kts | 92° |
| 2026-05-07 17:59 | -16.51194 | -68.24128 | 13699 ft | 187 kts | 91° |
| 2026-05-07 18:00 | -16.51228 | -68.22785 | 13390 ft | 185 kts | 91° |
| 2026-05-07 18:00 | -16.51266 | -68.21456 | 13216 ft | 183 kts | 90° |
| 2026-05-07 18:00 | -16.51303 | -68.20186 | 13209 ft | 156 kts | 91° |
| 2026-05-07 18:00 | -16.51333 | -68.19260 | 13281 ft | 103 kts | 91° |
| 2026-05-07 18:01 | -16.51351 | -68.18674 | 13294 ft | 59 kts | 92° |
| 2026-05-07 18:01 | -16.51349 | -68.18385 | 13299 ft | 33 kts | 76° |
| 2026-05-07 18:01 | -16.51261 | -68.18176 | 13306 ft | 30 kts | 53° |
| 2026-05-07 18:01 | -16.51141 | -68.18040 | 13328 ft | 20 kts | 47° |
| 2026-05-07 18:02 | -16.51002 | -68.17881 | 13336 ft | 10 kts | 59° |
| 2026-05-07 18:02 | -16.50991 | -68.17809 | 13354 ft | 10 kts | 79° |
| 2026-05-07 18:02 | -16.50953 | -68.17771 | 13336 ft | 3 kts | 38° |
| 2026-05-07 18:03 | -16.50941 | -68.17762 | 13336 ft | 0 kts | 38° |